sensor_id;sensor_type;location;lat;lon;timestamp;P1;durP1;ratioP1;P2;durP2;ratioP2
18114;SDS011;9184;54.390;18.620;2022-11-12T00:00:20;13.93;;;7.22;;
18114;SDS011;9184;54.390;18.620;2022-11-12T00:00:52;12.00;;;7.63;;
18114;SDS011;9184;54.390;18.620;2022-11-12T00:01:22;12.50;;;7.03;;
18114;SDS011;9184;54.390;18.620;2022-11-12T00:01:54;14.73;;;7.82;;
18114;SDS011;9184;54.390;18.620;2022-11-12T00:02:24;11.55;;;7.72;;
18114;SDS011;9184;54.390;18.620;2022-11-12T00:02:55;10.20;;;7.43;;
18114;SDS011;9184;54.390;18.620;2022-11-12T00:03:26;9.82;;;7.13;;
18114;SDS011;9184;54.390;18.620;2022-11-12T00:03:57;13.20;;;7.75;;
18114;SDS011;9184;54.390;18.620;2022-11-12T00:04:27;12.30;;;8.20;;
18114;SDS011;9184;54.390;18.620;2022-11-12T00:04:58;10.48;;;7.30;;
18114;SDS011;9184;54.390;18.620;2022-11-12T00:05:29;12.55;;;7.75;;
18114;SDS011;9184;54.390;18.620;2022-11-12T00:05:59;16.92;;;8.35;;
18114;SDS011;9184;54.390;18.620;2022-11-12T00:06:31;17.70;;;7.65;;
18114;SDS011;9184;54.390;18.620;2022-11-12T00:07:01;13.20;;;6.78;;
18114;SDS011;9184;54.390;18.620;2022-11-12T00:07:32;11.73;;;7.18;;
18114;SDS011;9184;54.390;18.620;2022-11-12T00:08:03;10.57;;;7.50;;
18114;SDS011;9184;54.390;18.620;2022-11-12T00:08:34;13.68;;;7.57;;
18114;SDS011;9184;54.390;18.620;2022-11-12T00:09:04;14.45;;;8.40;;
18114;SDS011;9184;54.390;18.620;2022-11-12T00:09:35;13.27;;;7.60;;
18114;SDS011;9184;54.390;18.620;2022-11-12T00:10:06;10.60;;;7.32;;
18114;SDS011;9184;54.390;18.620;2022-11-12T00:10:36;12.85;;;7.88;;
18114;SDS011;9184;54.390;18.620;2022-11-12T00:11:08;11.77;;;8.65;;
18114;SDS011;9184;54.390;18.620;2022-11-12T00:11:38;11.23;;;7.22;;
18114;SDS011;9184;54.390;18.620;2022-11-12T00:12:09;13.27;;;7.53;;
18114;SDS011;9184;54.390;18.620;2022-11-12T00:12:39;10.32;;;7.30;;
18114;SDS011;9184;54.390;18.620;2022-11-12T00:13:10;12.68;;;7.40;;
18114;SDS011;9184;54.390;18.620;2022-11-12T00:13:41;13.10;;;8.23;;
18114;SDS011;9184;54.390;18.620;2022-11-12T00:14:12;13.35;;;7.75;;
18114;SDS011;9184;54.390;18.620;2022-11-12T00:14:43;13.85;;;8.05;;
18114;SDS011;9184;54.390;18.620;2022-11-12T00:15:13;13.25;;;7.47;;
18114;SDS011;9184;54.390;18.620;2022-11-12T00:15:45;12.43;;;7.68;;
18114;SDS011;9184;54.390;18.620;2022-11-12T00:16:17;12.73;;;7.47;;
18114;SDS011;9184;54.390;18.620;2022-11-12T00:16:47;14.10;;;8.52;;
18114;SDS011;9184;54.390;18.620;2022-11-12T00:17:19;14.65;;;7.22;;
18114;SDS011;9184;54.390;18.620;2022-11-12T00:17:50;10.30;;;7.28;;
18114;SDS011;9184;54.390;18.620;2022-11-12T00:18:20;12.80;;;7.82;;
18114;SDS011;9184;54.390;18.620;2022-11-12T00:18:52;14.30;;;8.05;;
18114;SDS011;9184;54.390;18.620;2022-11-12T00:19:22;12.73;;;7.85;;
18114;SDS011;9184;54.390;18.620;2022-11-12T00:19:52;14.10;;;8.25;;
18114;SDS011;9184;54.390;18.620;2022-11-12T00:20:25;11.50;;;7.00;;
18114;SDS011;9184;54.390;18.620;2022-11-12T00:20:55;10.55;;;7.78;;
18114;SDS011;9184;54.390;18.620;2022-11-12T00:21:26;11.68;;;7.45;;
18114;SDS011;9184;54.390;18.620;2022-11-12T00:21:57;11.43;;;7.95;;
18114;SDS011;9184;54.390;18.620;2022-11-12T00:22:27;14.18;;;7.80;;
18114;SDS011;9184;54.390;18.620;2022-11-12T00:22:59;11.90;;;7.45;;
18114;SDS011;9184;54.390;18.620;2022-11-12T00:23:29;13.48;;;8.15;;
18114;SDS011;9184;54.390;18.620;2022-11-12T00:24:01;13.73;;;7.60;;
18114;SDS011;9184;54.390;18.620;2022-11-12T00:24:31;12.98;;;7.68;;
18114;SDS011;9184;54.390;18.620;2022-11-12T00:25:02;10.95;;;7.10;;
18114;SDS011;9184;54.390;18.620;2022-11-12T00:25:32;12.32;;;7.55;;
18114;SDS011;9184;54.390;18.620;2022-11-12T00:26:03;13.32;;;7.65;;
18114;SDS011;9184;54.390;18.620;2022-11-12T00:26:34;16.45;;;8.43;;
18114;SDS011;9184;54.390;18.620;2022-11-12T00:27:04;14.77;;;8.02;;
18114;SDS011;9184;54.390;18.620;2022-11-12T00:27:35;12.02;;;7.63;;
18114;SDS011;9184;54.390;18.620;2022-11-12T00:28:07;10.40;;;6.95;;
18114;SDS011;9184;54.390;18.620;2022-11-12T00:28:38;12.05;;;7.35;;
18114;SDS011;9184;54.390;18.620;2022-11-12T00:29:08;14.88;;;8.45;;
18114;SDS011;9184;54.390;18.620;2022-11-12T00:29:40;18.02;;;8.57;;
18114;SDS011;9184;54.390;18.620;2022-11-12T00:30:10;12.50;;;7.35;;
18114;SDS011;9184;54.390;18.620;2022-11-12T00:30:41;9.30;;;7.47;;
18114;SDS011;9184;54.390;18.620;2022-11-12T00:31:12;12.27;;;8.00;;
18114;SDS011;9184;54.390;18.620;2022-11-12T00:31:44;12.90;;;7.65;;
18114;SDS011;9184;54.390;18.620;2022-11-12T00:32:14;9.57;;;7.57;;
18114;SDS011;9184;54.390;18.620;2022-11-12T00:32:46;13.25;;;7.88;;
18114;SDS011;9184;54.390;18.620;2022-11-12T00:33:16;15.88;;;8.55;;
18114;SDS011;9184;54.390;18.620;2022-11-12T00:33:46;12.63;;;7.93;;
18114;SDS011;9184;54.390;18.620;2022-11-12T00:34:18;12.88;;;8.07;;
18114;SDS011;9184;54.390;18.620;2022-11-12T00:34:48;16.70;;;7.70;;
18114;SDS011;9184;54.390;18.620;2022-11-12T00:35:19;13.57;;;7.75;;
18114;SDS011;9184;54.390;18.620;2022-11-12T00:35:49;14.73;;;8.18;;
18114;SDS011;9184;54.390;18.620;2022-11-12T00:36:20;11.95;;;8.15;;
18114;SDS011;9184;54.390;18.620;2022-11-12T00:36:51;14.98;;;8.38;;
18114;SDS011;9184;54.390;18.620;2022-11-12T00:37:21;14.70;;;8.57;;
18114;SDS011;9184;54.390;18.620;2022-11-12T00:37:54;11.88;;;8.55;;
18114;SDS011;9184;54.390;18.620;2022-11-12T00:38:25;9.85;;;7.43;;
18114;SDS011;9184;54.390;18.620;2022-11-12T00:38:56;12.13;;;8.02;;
18114;SDS011;9184;54.390;18.620;2022-11-12T00:39:27;10.70;;;7.57;;
18114;SDS011;9184;54.390;18.620;2022-11-12T00:39:58;15.88;;;8.00;;
18114;SDS011;9184;54.390;18.620;2022-11-12T00:40:28;11.48;;;8.27;;
18114;SDS011;9184;54.390;18.620;2022-11-12T00:40:58;13.60;;;8.52;;
18114;SDS011;9184;54.390;18.620;2022-11-12T00:41:30;13.48;;;8.77;;
18114;SDS011;9184;54.390;18.620;2022-11-12T00:42:00;12.23;;;8.50;;
18114;SDS011;9184;54.390;18.620;2022-11-12T00:42:31;13.77;;;7.85;;
18114;SDS011;9184;54.390;18.620;2022-11-12T00:43:02;13.70;;;7.93;;
18114;SDS011;9184;54.390;18.620;2022-11-12T00:43:33;11.23;;;8.38;;
18114;SDS011;9184;54.390;18.620;2022-11-12T00:44:03;14.55;;;8.32;;
18114;SDS011;9184;54.390;18.620;2022-11-12T00:44:35;15.65;;;8.05;;
18114;SDS011;9184;54.390;18.620;2022-11-12T00:45:05;17.65;;;8.15;;
18114;SDS011;9184;54.390;18.620;2022-11-12T00:45:36;12.65;;;7.50;;
18114;SDS011;9184;54.390;18.620;2022-11-12T00:46:07;10.90;;;7.93;;
18114;SDS011;9184;54.390;18.620;2022-11-12T00:46:38;10.80;;;7.72;;
18114;SDS011;9184;54.390;18.620;2022-11-12T00:47:09;15.40;;;8.57;;
18114;SDS011;9184;54.390;18.620;2022-11-12T00:47:41;14.23;;;8.45;;
18114;SDS011;9184;54.390;18.620;2022-11-12T00:48:11;12.55;;;7.95;;
18114;SDS011;9184;54.390;18.620;2022-11-12T00:48:42;15.63;;;7.70;;
18114;SDS011;9184;54.390;18.620;2022-11-12T00:49:14;13.70;;;8.27;;
18114;SDS011;9184;54.390;18.620;2022-11-12T00:49:44;12.02;;;8.45;;
18114;SDS011;9184;54.390;18.620;2022-11-12T00:50:15;12.07;;;9.15;;
18114;SDS011;9184;54.390;18.620;2022-11-12T00:50:46;13.80;;;7.95;;
18114;SDS011;9184;54.390;18.620;2022-11-12T00:51:17;13.02;;;8.60;;
18114;SDS011;9184;54.390;18.620;2022-11-12T00:51:47;15.68;;;7.95;;
18114;SDS011;9184;54.390;18.620;2022-11-12T00:52:19;13.57;;;7.45;;
18114;SDS011;9184;54.390;18.620;2022-11-12T00:52:50;14.27;;;8.50;;
18114;SDS011;9184;54.390;18.620;2022-11-12T00:53:21;12.10;;;8.60;;
18114;SDS011;9184;54.390;18.620;2022-11-12T00:53:52;15.68;;;9.48;;
18114;SDS011;9184;54.390;18.620;2022-11-12T00:54:23;14.00;;;7.78;;
18114;SDS011;9184;54.390;18.620;2022-11-12T00:54:54;18.15;;;8.63;;
18114;SDS011;9184;54.390;18.620;2022-11-12T00:55:25;11.85;;;7.82;;
18114;SDS011;9184;54.390;18.620;2022-11-12T00:55:59;11.07;;;8.18;;
18114;SDS011;9184;54.390;18.620;2022-11-12T00:56:30;12.10;;;7.90;;
18114;SDS011;9184;54.390;18.620;2022-11-12T00:57:01;11.48;;;8.18;;
18114;SDS011;9184;54.390;18.620;2022-11-12T00:57:32;10.65;;;7.32;;
18114;SDS011;9184;54.390;18.620;2022-11-12T00:58:02;11.65;;;8.13;;
18114;SDS011;9184;54.390;18.620;2022-11-12T00:58:34;11.73;;;7.97;;
18114;SDS011;9184;54.390;18.620;2022-11-12T00:59:05;10.07;;;8.05;;
18114;SDS011;9184;54.390;18.620;2022-11-12T00:59:35;13.23;;;8.05;;
18114;SDS011;9184;54.390;18.620;2022-11-12T01:00:06;9.77;;;7.85;;
18114;SDS011;9184;54.390;18.620;2022-11-12T01:00:38;11.55;;;8.02;;
18114;SDS011;9184;54.390;18.620;2022-11-12T01:01:09;10.00;;;7.75;;
18114;SDS011;9184;54.390;18.620;2022-11-12T01:01:40;12.13;;;8.05;;
18114;SDS011;9184;54.390;18.620;2022-11-12T01:02:13;10.05;;;7.97;;
18114;SDS011;9184;54.390;18.620;2022-11-12T01:02:44;15.73;;;7.93;;
18114;SDS011;9184;54.390;18.620;2022-11-12T01:03:14;11.27;;;7.93;;
18114;SDS011;9184;54.390;18.620;2022-11-12T01:03:44;13.20;;;7.75;;
18114;SDS011;9184;54.390;18.620;2022-11-12T01:04:16;10.02;;;7.80;;
18114;SDS011;9184;54.390;18.620;2022-11-12T01:04:46;13.38;;;8.68;;
18114;SDS011;9184;54.390;18.620;2022-11-12T01:05:17;14.38;;;7.78;;
18114;SDS011;9184;54.390;18.620;2022-11-12T01:05:48;11.75;;;7.20;;
18114;SDS011;9184;54.390;18.620;2022-11-12T01:06:20;14.70;;;8.25;;
18114;SDS011;9184;54.390;18.620;2022-11-12T01:06:50;13.77;;;8.57;;
18114;SDS011;9184;54.390;18.620;2022-11-12T01:07:21;14.13;;;8.65;;
18114;SDS011;9184;54.390;18.620;2022-11-12T01:07:51;14.75;;;8.38;;
18114;SDS011;9184;54.390;18.620;2022-11-12T01:08:23;14.75;;;8.23;;
18114;SDS011;9184;54.390;18.620;2022-11-12T01:08:53;14.63;;;8.15;;
18114;SDS011;9184;54.390;18.620;2022-11-12T01:09:24;20.80;;;8.65;;
18114;SDS011;9184;54.390;18.620;2022-11-12T01:09:55;15.50;;;7.55;;
18114;SDS011;9184;54.390;18.620;2022-11-12T01:10:26;13.15;;;8.30;;
18114;SDS011;9184;54.390;18.620;2022-11-12T01:11:03;15.23;;;8.30;;
18114;SDS011;9184;54.390;18.620;2022-11-12T01:11:33;12.23;;;8.07;;
18114;SDS011;9184;54.390;18.620;2022-11-12T01:12:05;12.05;;;7.88;;
18114;SDS011;9184;54.390;18.620;2022-11-12T01:12:35;16.35;;;8.45;;
18114;SDS011;9184;54.390;18.620;2022-11-12T01:13:06;15.60;;;8.35;;
18114;SDS011;9184;54.390;18.620;2022-11-12T01:13:36;11.93;;;7.78;;
18114;SDS011;9184;54.390;18.620;2022-11-12T01:14:08;11.25;;;8.07;;
18114;SDS011;9184;54.390;18.620;2022-11-12T01:14:39;12.25;;;7.97;;
18114;SDS011;9184;54.390;18.620;2022-11-12T01:15:09;12.32;;;8.60;;
18114;SDS011;9184;54.390;18.620;2022-11-12T01:15:41;12.70;;;8.50;;
18114;SDS011;9184;54.390;18.620;2022-11-12T01:16:12;15.80;;;8.48;;
18114;SDS011;9184;54.390;18.620;2022-11-12T01:16:43;13.50;;;7.78;;
18114;SDS011;9184;54.390;18.620;2022-11-12T01:17:15;12.98;;;7.68;;
18114;SDS011;9184;54.390;18.620;2022-11-12T01:17:46;12.05;;;8.23;;
18114;SDS011;9184;54.390;18.620;2022-11-12T01:18:16;13.13;;;8.27;;
18114;SDS011;9184;54.390;18.620;2022-11-12T01:18:50;14.82;;;8.02;;
18114;SDS011;9184;54.390;18.620;2022-11-12T01:19:21;9.48;;;8.07;;
18114;SDS011;9184;54.390;18.620;2022-11-12T01:19:51;24.05;;;10.02;;
18114;SDS011;9184;54.390;18.620;2022-11-12T01:20:23;15.60;;;8.75;;
18114;SDS011;9184;54.390;18.620;2022-11-12T01:20:53;13.98;;;8.30;;
18114;SDS011;9184;54.390;18.620;2022-11-12T01:21:25;14.80;;;8.75;;
18114;SDS011;9184;54.390;18.620;2022-11-12T01:21:56;16.10;;;8.93;;
18114;SDS011;9184;54.390;18.620;2022-11-12T01:22:27;15.50;;;9.48;;
18114;SDS011;9184;54.390;18.620;2022-11-12T01:22:57;10.45;;;8.27;;
18114;SDS011;9184;54.390;18.620;2022-11-12T01:23:30;12.05;;;7.60;;
18114;SDS011;9184;54.390;18.620;2022-11-12T01:24:01;14.38;;;8.43;;
18114;SDS011;9184;54.390;18.620;2022-11-12T01:24:31;15.88;;;8.38;;
18114;SDS011;9184;54.390;18.620;2022-11-12T01:25:03;12.43;;;7.82;;
18114;SDS011;9184;54.390;18.620;2022-11-12T01:25:36;14.93;;;8.30;;
18114;SDS011;9184;54.390;18.620;2022-11-12T01:26:06;16.02;;;8.15;;
18114;SDS011;9184;54.390;18.620;2022-11-12T01:26:37;11.00;;;7.47;;
18114;SDS011;9184;54.390;18.620;2022-11-12T01:27:10;11.15;;;7.85;;
18114;SDS011;9184;54.390;18.620;2022-11-12T01:27:41;10.73;;;7.45;;
18114;SDS011;9184;54.390;18.620;2022-11-12T01:28:11;15.82;;;8.85;;
18114;SDS011;9184;54.390;18.620;2022-11-12T01:28:42;13.77;;;8.77;;
18114;SDS011;9184;54.390;18.620;2022-11-12T01:29:14;14.90;;;7.50;;
18114;SDS011;9184;54.390;18.620;2022-11-12T01:29:44;12.77;;;8.07;;
18114;SDS011;9184;54.390;18.620;2022-11-12T01:30:15;12.80;;;8.20;;
18114;SDS011;9184;54.390;18.620;2022-11-12T01:30:46;13.77;;;7.72;;
18114;SDS011;9184;54.390;18.620;2022-11-12T01:31:17;15.77;;;8.27;;
18114;SDS011;9184;54.390;18.620;2022-11-12T01:31:49;12.70;;;8.10;;
18114;SDS011;9184;54.390;18.620;2022-11-12T01:32:22;14.02;;;7.80;;
18114;SDS011;9184;54.390;18.620;2022-11-12T01:32:52;14.93;;;8.02;;
18114;SDS011;9184;54.390;18.620;2022-11-12T01:33:22;12.80;;;8.57;;
18114;SDS011;9184;54.390;18.620;2022-11-12T01:33:53;13.25;;;8.30;;
18114;SDS011;9184;54.390;18.620;2022-11-12T01:34:25;16.20;;;8.18;;
18114;SDS011;9184;54.390;18.620;2022-11-12T01:34:56;15.25;;;8.27;;
18114;SDS011;9184;54.390;18.620;2022-11-12T01:35:26;13.20;;;8.85;;
18114;SDS011;9184;54.390;18.620;2022-11-12T01:35:57;16.08;;;8.50;;
18114;SDS011;9184;54.390;18.620;2022-11-12T01:36:30;17.77;;;9.07;;
18114;SDS011;9184;54.390;18.620;2022-11-12T01:37:01;16.73;;;8.77;;
18114;SDS011;9184;54.390;18.620;2022-11-12T01:37:32;14.73;;;7.65;;
18114;SDS011;9184;54.390;18.620;2022-11-12T01:38:03;9.27;;;7.30;;
18114;SDS011;9184;54.390;18.620;2022-11-12T01:38:33;13.25;;;7.68;;
18114;SDS011;9184;54.390;18.620;2022-11-12T01:39:04;12.30;;;7.90;;
18114;SDS011;9184;54.390;18.620;2022-11-12T01:39:36;13.77;;;7.97;;
18114;SDS011;9184;54.390;18.620;2022-11-12T01:40:06;12.25;;;7.63;;
18114;SDS011;9184;54.390;18.620;2022-11-12T01:40:38;14.40;;;7.90;;
18114;SDS011;9184;54.390;18.620;2022-11-12T01:41:11;15.00;;;8.32;;
18114;SDS011;9184;54.390;18.620;2022-11-12T01:41:42;14.85;;;8.82;;
18114;SDS011;9184;54.390;18.620;2022-11-12T01:42:14;13.82;;;7.75;;
18114;SDS011;9184;54.390;18.620;2022-11-12T01:42:45;13.13;;;8.38;;
18114;SDS011;9184;54.390;18.620;2022-11-12T01:43:20;14.00;;;8.82;;
18114;SDS011;9184;54.390;18.620;2022-11-12T01:44:05;16.50;;;8.32;;
18114;SDS011;9184;54.390;18.620;2022-11-12T01:44:36;13.77;;;8.60;;
18114;SDS011;9184;54.390;18.620;2022-11-12T01:45:11;13.70;;;8.40;;
18114;SDS011;9184;54.390;18.620;2022-11-12T01:45:45;13.60;;;8.35;;
18114;SDS011;9184;54.390;18.620;2022-11-12T01:46:19;11.52;;;7.80;;
18114;SDS011;9184;54.390;18.620;2022-11-12T01:46:56;11.85;;;8.23;;
18114;SDS011;9184;54.390;18.620;2022-11-12T01:47:29;12.32;;;8.18;;
18114;SDS011;9184;54.390;18.620;2022-11-12T01:48:02;16.23;;;8.60;;
18114;SDS011;9184;54.390;18.620;2022-11-12T01:48:33;12.00;;;8.52;;
18114;SDS011;9184;54.390;18.620;2022-11-12T01:49:08;15.23;;;8.60;;
18114;SDS011;9184;54.390;18.620;2022-11-12T01:49:42;11.45;;;8.60;;
18114;SDS011;9184;54.390;18.620;2022-11-12T01:50:15;14.98;;;9.35;;
18114;SDS011;9184;54.390;18.620;2022-11-12T01:50:46;13.63;;;8.95;;
18114;SDS011;9184;54.390;18.620;2022-11-12T01:51:17;13.15;;;8.88;;
18114;SDS011;9184;54.390;18.620;2022-11-12T01:51:50;13.32;;;8.43;;
18114;SDS011;9184;54.390;18.620;2022-11-12T01:52:21;16.60;;;9.50;;
18114;SDS011;9184;54.390;18.620;2022-11-12T01:52:52;10.88;;;8.30;;
18114;SDS011;9184;54.390;18.620;2022-11-12T01:53:25;15.27;;;9.13;;
18114;SDS011;9184;54.390;18.620;2022-11-12T01:53:57;12.77;;;8.85;;
18114;SDS011;9184;54.390;18.620;2022-11-12T01:54:28;15.35;;;7.90;;
18114;SDS011;9184;54.390;18.620;2022-11-12T01:55:02;13.32;;;8.60;;
18114;SDS011;9184;54.390;18.620;2022-11-12T01:55:34;16.08;;;9.13;;
18114;SDS011;9184;54.390;18.620;2022-11-12T01:56:06;12.82;;;8.77;;
18114;SDS011;9184;54.390;18.620;2022-11-12T01:56:37;12.85;;;8.52;;
18114;SDS011;9184;54.390;18.620;2022-11-12T01:57:08;14.70;;;8.75;;
18114;SDS011;9184;54.390;18.620;2022-11-12T01:57:40;15.32;;;9.65;;
18114;SDS011;9184;54.390;18.620;2022-11-12T01:58:13;11.40;;;7.78;;
18114;SDS011;9184;54.390;18.620;2022-11-12T01:58:44;12.68;;;8.45;;
18114;SDS011;9184;54.390;18.620;2022-11-12T01:59:17;13.73;;;9.10;;
18114;SDS011;9184;54.390;18.620;2022-11-12T01:59:51;15.27;;;8.15;;
18114;SDS011;9184;54.390;18.620;2022-11-12T02:00:22;11.27;;;8.00;;
18114;SDS011;9184;54.390;18.620;2022-11-12T02:00:54;14.88;;;8.15;;
18114;SDS011;9184;54.390;18.620;2022-11-12T02:01:24;15.43;;;8.75;;
18114;SDS011;9184;54.390;18.620;2022-11-12T02:01:55;15.95;;;8.43;;
18114;SDS011;9184;54.390;18.620;2022-11-12T02:02:25;13.23;;;7.97;;
18114;SDS011;9184;54.390;18.620;2022-11-12T02:02:59;16.98;;;7.68;;
18114;SDS011;9184;54.390;18.620;2022-11-12T02:03:30;12.73;;;7.65;;
18114;SDS011;9184;54.390;18.620;2022-11-12T02:04:01;12.88;;;9.52;;
18114;SDS011;9184;54.390;18.620;2022-11-12T02:04:32;17.05;;;8.90;;
18114;SDS011;9184;54.390;18.620;2022-11-12T02:05:05;12.95;;;9.43;;
18114;SDS011;9184;54.390;18.620;2022-11-12T02:05:36;13.07;;;9.32;;
18114;SDS011;9184;54.390;18.620;2022-11-12T02:06:08;15.73;;;9.02;;
18114;SDS011;9184;54.390;18.620;2022-11-12T02:06:40;15.20;;;9.43;;
18114;SDS011;9184;54.390;18.620;2022-11-12T02:07:12;25.65;;;10.43;;
18114;SDS011;9184;54.390;18.620;2022-11-12T02:07:42;14.77;;;9.80;;
18114;SDS011;9184;54.390;18.620;2022-11-12T02:08:15;14.88;;;8.68;;
18114;SDS011;9184;54.390;18.620;2022-11-12T02:08:47;13.75;;;8.98;;
18114;SDS011;9184;54.390;18.620;2022-11-12T02:09:18;16.05;;;9.57;;
18114;SDS011;9184;54.390;18.620;2022-11-12T02:09:48;16.50;;;9.80;;
18114;SDS011;9184;54.390;18.620;2022-11-12T02:10:20;16.17;;;9.43;;
18114;SDS011;9184;54.390;18.620;2022-11-12T02:10:51;15.05;;;9.23;;
18114;SDS011;9184;54.390;18.620;2022-11-12T02:11:21;14.30;;;9.20;;
18114;SDS011;9184;54.390;18.620;2022-11-12T02:11:53;14.13;;;8.85;;
18114;SDS011;9184;54.390;18.620;2022-11-12T02:12:23;16.10;;;8.77;;
18114;SDS011;9184;54.390;18.620;2022-11-12T02:13:12;11.75;;;9.13;;
18114;SDS011;9184;54.390;18.620;2022-11-12T02:14:01;13.20;;;8.70;;
18114;SDS011;9184;54.390;18.620;2022-11-12T02:14:31;16.13;;;9.05;;
18114;SDS011;9184;54.390;18.620;2022-11-12T02:15:02;13.38;;;8.55;;
18114;SDS011;9184;54.390;18.620;2022-11-12T02:15:34;12.32;;;9.02;;
18114;SDS011;9184;54.390;18.620;2022-11-12T02:16:04;12.93;;;9.52;;
18114;SDS011;9184;54.390;18.620;2022-11-12T02:16:36;18.58;;;9.60;;
18114;SDS011;9184;54.390;18.620;2022-11-12T02:17:08;12.95;;;9.15;;
18114;SDS011;9184;54.390;18.620;2022-11-12T02:17:38;12.85;;;8.65;;
18114;SDS011;9184;54.390;18.620;2022-11-12T02:18:10;15.30;;;9.95;;
18114;SDS011;9184;54.390;18.620;2022-11-12T02:18:40;14.75;;;9.10;;
18114;SDS011;9184;54.390;18.620;2022-11-12T02:19:12;17.13;;;8.68;;
18114;SDS011;9184;54.390;18.620;2022-11-12T02:19:44;12.10;;;8.60;;
18114;SDS011;9184;54.390;18.620;2022-11-12T02:20:15;15.75;;;9.13;;
18114;SDS011;9184;54.390;18.620;2022-11-12T02:20:51;13.50;;;9.77;;
18114;SDS011;9184;54.390;18.620;2022-11-12T02:21:24;13.00;;;9.18;;
18114;SDS011;9184;54.390;18.620;2022-11-12T02:21:55;12.82;;;9.05;;
18114;SDS011;9184;54.390;18.620;2022-11-12T02:22:26;16.75;;;8.73;;
18114;SDS011;9184;54.390;18.620;2022-11-12T02:22:57;15.52;;;9.50;;
18114;SDS011;9184;54.390;18.620;2022-11-12T02:23:27;16.23;;;8.63;;
18114;SDS011;9184;54.390;18.620;2022-11-12T02:23:58;14.57;;;8.57;;
18114;SDS011;9184;54.390;18.620;2022-11-12T02:24:31;13.80;;;8.55;;
18114;SDS011;9184;54.390;18.620;2022-11-12T02:25:02;14.35;;;8.30;;
18114;SDS011;9184;54.390;18.620;2022-11-12T02:25:34;15.38;;;9.07;;
18114;SDS011;9184;54.390;18.620;2022-11-12T02:26:06;18.17;;;9.20;;
18114;SDS011;9184;54.390;18.620;2022-11-12T02:26:38;17.25;;;9.57;;
18114;SDS011;9184;54.390;18.620;2022-11-12T02:27:09;12.57;;;8.50;;
18114;SDS011;9184;54.390;18.620;2022-11-12T02:27:41;14.73;;;9.70;;
18114;SDS011;9184;54.390;18.620;2022-11-12T02:28:12;17.98;;;10.00;;
18114;SDS011;9184;54.390;18.620;2022-11-12T02:28:42;16.75;;;9.57;;
18114;SDS011;9184;54.390;18.620;2022-11-12T02:29:12;15.95;;;9.50;;
18114;SDS011;9184;54.390;18.620;2022-11-12T02:29:44;16.33;;;9.93;;
18114;SDS011;9184;54.390;18.620;2022-11-12T02:30:15;13.30;;;8.90;;
18114;SDS011;9184;54.390;18.620;2022-11-12T02:30:47;20.73;;;10.13;;
18114;SDS011;9184;54.390;18.620;2022-11-12T02:31:18;16.98;;;9.90;;
18114;SDS011;9184;54.390;18.620;2022-11-12T02:31:49;20.45;;;9.15;;
18114;SDS011;9184;54.390;18.620;2022-11-12T02:32:19;14.57;;;8.35;;
18114;SDS011;9184;54.390;18.620;2022-11-12T02:32:51;16.88;;;9.77;;
18114;SDS011;9184;54.390;18.620;2022-11-12T02:33:21;21.45;;;9.90;;
18114;SDS011;9184;54.390;18.620;2022-11-12T02:33:51;16.30;;;9.30;;
18114;SDS011;9184;54.390;18.620;2022-11-12T02:34:23;18.70;;;9.38;;
18114;SDS011;9184;54.390;18.620;2022-11-12T02:34:53;17.75;;;10.05;;
18114;SDS011;9184;54.390;18.620;2022-11-12T02:35:24;22.85;;;9.82;;
18114;SDS011;9184;54.390;18.620;2022-11-12T02:35:54;14.90;;;8.93;;
18114;SDS011;9184;54.390;18.620;2022-11-12T02:36:27;13.10;;;8.30;;
18114;SDS011;9184;54.390;18.620;2022-11-12T02:36:57;14.32;;;9.57;;
18114;SDS011;9184;54.390;18.620;2022-11-12T02:37:28;15.98;;;9.68;;
18114;SDS011;9184;54.390;18.620;2022-11-12T02:37:59;18.00;;;9.68;;
18114;SDS011;9184;54.390;18.620;2022-11-12T02:38:30;16.25;;;10.23;;
18114;SDS011;9184;54.390;18.620;2022-11-12T02:39:01;16.48;;;9.60;;
18114;SDS011;9184;54.390;18.620;2022-11-12T02:39:32;14.18;;;9.30;;
18114;SDS011;9184;54.390;18.620;2022-11-12T02:40:03;18.25;;;9.27;;
18114;SDS011;9184;54.390;18.620;2022-11-12T02:40:34;15.15;;;9.15;;
18114;SDS011;9184;54.390;18.620;2022-11-12T02:41:05;18.95;;;9.68;;
18114;SDS011;9184;54.390;18.620;2022-11-12T02:41:36;16.52;;;8.90;;
18114;SDS011;9184;54.390;18.620;2022-11-12T02:42:06;13.65;;;9.68;;
18114;SDS011;9184;54.390;18.620;2022-11-12T02:42:38;15.00;;;8.77;;
18114;SDS011;9184;54.390;18.620;2022-11-12T02:43:08;15.75;;;8.82;;
18114;SDS011;9184;54.390;18.620;2022-11-12T02:43:39;14.68;;;8.70;;
18114;SDS011;9184;54.390;18.620;2022-11-12T02:44:10;15.00;;;9.05;;
18114;SDS011;9184;54.390;18.620;2022-11-12T02:44:41;15.65;;;10.30;;
18114;SDS011;9184;54.390;18.620;2022-11-12T02:45:11;15.38;;;9.32;;
18114;SDS011;9184;54.390;18.620;2022-11-12T02:45:44;14.68;;;8.65;;
18114;SDS011;9184;54.390;18.620;2022-11-12T02:46:14;13.60;;;9.40;;
18114;SDS011;9184;54.390;18.620;2022-11-12T02:46:45;17.60;;;8.98;;
18114;SDS011;9184;54.390;18.620;2022-11-12T02:47:16;18.90;;;9.43;;
18114;SDS011;9184;54.390;18.620;2022-11-12T02:47:46;17.67;;;8.48;;
18114;SDS011;9184;54.390;18.620;2022-11-12T02:48:17;16.25;;;9.73;;
18114;SDS011;9184;54.390;18.620;2022-11-12T02:48:47;15.98;;;8.45;;
18114;SDS011;9184;54.390;18.620;2022-11-12T02:49:19;14.75;;;8.80;;
18114;SDS011;9184;54.390;18.620;2022-11-12T02:49:49;16.88;;;9.07;;
18114;SDS011;9184;54.390;18.620;2022-11-12T02:50:20;11.35;;;7.82;;
18114;SDS011;9184;54.390;18.620;2022-11-12T02:50:51;15.55;;;8.65;;
18114;SDS011;9184;54.390;18.620;2022-11-12T02:51:21;17.63;;;8.68;;
18114;SDS011;9184;54.390;18.620;2022-11-12T02:51:53;15.65;;;8.82;;
18114;SDS011;9184;54.390;18.620;2022-11-12T02:52:24;13.98;;;8.60;;
18114;SDS011;9184;54.390;18.620;2022-11-12T02:52:55;16.08;;;9.82;;
18114;SDS011;9184;54.390;18.620;2022-11-12T02:53:25;13.40;;;8.55;;
18114;SDS011;9184;54.390;18.620;2022-11-12T02:53:56;14.77;;;9.25;;
18114;SDS011;9184;54.390;18.620;2022-11-12T02:54:27;18.92;;;8.68;;
18114;SDS011;9184;54.390;18.620;2022-11-12T02:54:58;12.50;;;8.93;;
18114;SDS011;9184;54.390;18.620;2022-11-12T02:55:28;15.10;;;8.70;;
18114;SDS011;9184;54.390;18.620;2022-11-12T02:55:59;13.80;;;8.50;;
18114;SDS011;9184;54.390;18.620;2022-11-12T02:56:30;16.50;;;8.48;;
18114;SDS011;9184;54.390;18.620;2022-11-12T02:57:01;13.30;;;8.27;;
18114;SDS011;9184;54.390;18.620;2022-11-12T02:57:32;14.57;;;9.10;;
18114;SDS011;9184;54.390;18.620;2022-11-12T02:58:02;21.00;;;9.88;;
18114;SDS011;9184;54.390;18.620;2022-11-12T02:58:33;14.77;;;8.73;;
18114;SDS011;9184;54.390;18.620;2022-11-12T02:59:04;14.18;;;8.05;;
18114;SDS011;9184;54.390;18.620;2022-11-12T02:59:34;15.27;;;8.63;;
18114;SDS011;9184;54.390;18.620;2022-11-12T03:00:06;11.70;;;7.80;;
18114;SDS011;9184;54.390;18.620;2022-11-12T03:00:37;13.40;;;8.45;;
18114;SDS011;9184;54.390;18.620;2022-11-12T03:01:08;14.88;;;8.38;;
18114;SDS011;9184;54.390;18.620;2022-11-12T03:01:39;13.55;;;8.10;;
18114;SDS011;9184;54.390;18.620;2022-11-12T03:02:11;13.77;;;9.02;;
18114;SDS011;9184;54.390;18.620;2022-11-12T03:02:41;14.27;;;7.43;;
18114;SDS011;9184;54.390;18.620;2022-11-12T03:03:11;11.98;;;8.07;;
18114;SDS011;9184;54.390;18.620;2022-11-12T03:03:43;12.18;;;9.15;;
18114;SDS011;9184;54.390;18.620;2022-11-12T03:04:14;19.60;;;8.90;;
18114;SDS011;9184;54.390;18.620;2022-11-12T03:04:44;16.55;;;8.15;;
18114;SDS011;9184;54.390;18.620;2022-11-12T03:05:15;14.48;;;9.20;;
18114;SDS011;9184;54.390;18.620;2022-11-12T03:05:52;16.33;;;8.43;;